This is the latest recevied weather packets stored in our database for station/object EC2UT-13. If no packets are shown the sender has not sent any weather packets the latest 10 day(s).
| Time | Temp. | Humidity | Pressure | Rain* | Wind** | Luminosity | Snow |
|---|---|---|---|---|---|---|---|
| 1777286437 | 23.33° C | 23% | 1018.7 hPa | 0 mm | - | - | - |
| 1777285217 | 22.78° C | 23% | 1019 hPa | 0 mm | - | - | - |
| 1777284617 | 22.22° C | 24% | 1019.2 hPa | 0 mm | - | - | - |
| 1777282217 | 21.67° C | 28% | 1019.7 hPa | 0 mm | - | - | - |
| 1777281617 | 21.11° C | 28% | 1019.6 hPa | 0 mm | - | - | - |
| 1777281037 | 21.11° C | 29% | 1019.5 hPa | 0 mm | - | - | - |
| 1777278637 | 20° C | 32% | 1020 hPa | 0 mm | - | - | - |
| 1777276237 | 17.78° C | 43% | 1020.2 hPa | 0 mm | - | - | - |
| 1777272037 | 15° C | 50% | 1019.9 hPa | 0 mm | - | - | - |
| 1777270217 | 13.89° C | 52% | 1019.7 hPa | 0 mm | - | - | - |
| 1777265416 | 14.44° C | 52% | 1019.1 hPa | 0 mm | - | - | - |
| 1777263016 | 15° C | 51% | 1019 hPa | 0 mm | - | - | - |
| 1777260016 | 15.56° C | 49% | 1018.8 hPa | 0 mm | - | - | - |
| 1777259416 | 16.11° C | 49% | 1018.9 hPa | 0 mm | - | - | - |
| 1777258237 | 16.11° C | 49% | 1018.8 hPa | 0 mm | - | - | - |
| 1777257617 | 16.11° C | 48% | 1018.6 hPa | 0 mm | - | - | - |
| 1777257016 | 16.67° C | 47% | 1018.8 hPa | 0 mm | - | - | - |
| 1777256416 | 16.67° C | 47% | 1018.7 hPa | 0 mm | - | - | - |
| 1777251618 | 17.78° C | 40% | 1019.1 hPa | 0 mm | - | - | - |
| 1777245618 | 18.89° C | 39% | 1019 hPa | 0 mm | - | - | - |
| 1777240218 | 20° C | 41% | 1018.6 hPa | 0 mm | - | - | - |
| 1777236618 | 21.67° C | 40% | 1018.4 hPa | 0 mm | - | - | - |
| 1777236038 | 22.22° C | 36% | 1018.4 hPa | 0 mm | - | - | - |
| 1777232418 | 25° C | 27% | - | 0 mm | - | - | - |
| 1777227618 | 27.22° C | 26% | - | 0 mm | - | - | - |
* Rain latest hour (hover to see other rain measurements)
** Current wind speed in m/s (hover to see current wind gust speed)